createdAt,value
2023-05-08T00:06:01.439Z,15.94
2023-05-08T00:07:32.614Z,15.95
2023-05-08T00:09:04.301Z,15.95
2023-05-08T00:10:48.142Z,15.92
2023-05-08T00:12:51.468Z,15.94
2023-05-08T00:14:53.780Z,15.95
2023-05-08T00:16:25.274Z,15.97
2023-05-08T00:17:56.471Z,16.01
2023-05-08T00:23:27.382Z,16.09
2023-05-08T00:24:58.581Z,16.10
2023-05-08T00:26:29.752Z,16.08
2023-05-08T00:29:06.753Z,16.08
2023-05-08T00:31:08.806Z,16.04
2023-05-08T00:33:11.221Z,16.02
2023-05-08T00:34:42.339Z,15.98
2023-05-08T00:36:24.932Z,15.95
2023-05-08T00:38:52.592Z,15.97
2023-05-08T00:43:23.449Z,15.97
2023-05-08T00:44:55.642Z,15.97
2023-05-08T00:46:26.974Z,15.95
2023-05-08T00:47:58.045Z,15.97
2023-05-08T00:53:59.648Z,15.97
2023-05-08T00:56:01.999Z,15.95
2023-05-08T00:57:33.178Z,15.97
2023-05-08T01:04:04.012Z,15.98
2023-05-08T01:06:46.230Z,15.98
2023-05-08T01:08:39.821Z,15.98
2023-05-08T01:10:12.062Z,15.97
2023-05-08T01:12:46.495Z,15.94
2023-05-08T01:14:17.625Z,15.92
2023-05-08T01:16:51.771Z,15.92
2023-05-08T01:18:55.030Z,15.86
2023-05-08T01:20:26.268Z,15.84
2023-05-08T01:21:57.379Z,15.88
2023-05-08T01:26:23.848Z,15.84
2023-05-08T01:27:55.501Z,15.90
2023-05-08T01:29:27.345Z,15.90
2023-05-08T01:30:58.514Z,15.86
2023-05-08T01:32:30.300Z,15.90
2023-05-08T01:34:01.382Z,15.83
2023-05-08T01:35:32.515Z,15.83
2023-05-08T01:37:03.674Z,15.82
2023-05-08T01:38:34.876Z,15.82
2023-05-08T01:40:06.057Z,15.79
2023-05-08T01:41:37.221Z,15.80
2023-05-08T02:03:51.880Z,15.68
2023-05-08T02:05:23.045Z,15.68
2023-05-08T02:06:54.188Z,15.68
2023-05-08T02:09:27.985Z,15.65
2023-05-08T02:11:00.178Z,15.62
2023-05-08T02:12:31.314Z,15.61
2023-05-08T02:14:03.511Z,15.61
2023-05-08T02:18:17.870Z,15.64
2023-05-08T02:19:50.031Z,15.68
2023-05-08T02:42:47.633Z,15.86
2023-05-08T02:44:19.808Z,15.86
2023-05-08T02:45:52.357Z,15.88
2023-05-08T02:48:57.023Z,15.86
2023-05-08T02:50:59.509Z,15.86
2023-05-08T02:52:30.674Z,15.80
2023-05-08T02:54:37.180Z,15.77
2023-05-08T02:56:07.887Z,15.79
2023-05-08T02:57:50.953Z,15.76
2023-05-08T03:13:42.520Z,15.77
2023-05-08T03:15:13.660Z,15.79
2023-05-08T03:16:46.312Z,15.76
2023-05-08T03:18:17.482Z,15.75
2023-05-08T03:28:21.335Z,15.75
2023-05-08T03:29:53.524Z,15.73
2023-05-08T03:31:24.975Z,15.72
2023-05-08T03:32:57.504Z,15.73
2023-05-08T04:11:21.254Z,15.62
2023-05-08T04:20:01.090Z,15.42
2023-05-08T04:21:32.724Z,15.43
2023-05-08T04:23:06.950Z,15.40
2023-05-08T04:33:21.243Z,15.33
2023-05-08T04:36:27.510Z,15.35
2023-05-08T04:55:19.026Z,15.27
2023-05-08T04:57:44.786Z,15.25
2023-05-08T05:00:41.776Z,15.24
2023-05-08T05:13:24.650Z,15.33
2023-05-08T05:15:44.868Z,15.33
2023-05-08T05:17:16.452Z,15.35
2023-05-08T05:28:21.672Z,15.39
2023-05-08T05:29:52.887Z,15.40
2023-05-08T05:32:07.151Z,15.39
2023-05-08T05:36:50.595Z,15.43
2023-05-08T06:27:41.723Z,15.46
2023-05-08T07:13:18.872Z,15.42
2023-05-08T07:19:23.768Z,15.43
2023-05-08T07:59:32.068Z,15.51
2023-05-08T08:02:06.935Z,15.51
2023-05-08T09:11:04.727Z,15.86
2023-05-08T09:48:37.812Z,15.97
2023-05-08T09:51:14.952Z,16.00
2023-05-08T09:52:48.355Z,16.00
2023-05-08T10:07:57.179Z,16.01
2023-05-08T10:13:59.376Z,16.01
2023-05-08T10:15:31.574Z,16.04
2023-05-08T10:17:03.809Z,16.04
2023-05-08T10:18:46.401Z,16.04
2023-05-08T10:20:21.249Z,16.05
2023-05-08T10:21:50.799Z,16.08
2023-05-08T10:25:28.313Z,16.08
2023-05-08T10:27:23.885Z,16.08
2023-05-08T10:33:20.209Z,16.15
2023-05-08T10:35:28.383Z,16.16
2023-05-08T11:14:11.996Z,16.84
2023-05-08T11:16:08.297Z,16.87
2023-05-08T12:49:46.600Z,20.92
2023-05-08T12:51:17.765Z,21.02
2023-05-08T12:53:31.702Z,21.05
2023-05-08T12:55:03.895Z,21.12
2023-05-08T13:08:54.703Z,21.95
2023-05-08T13:10:58.547Z,21.82
2023-05-08T13:13:02.816Z,21.83
2023-05-08T13:16:32.824Z,21.58
2023-05-08T13:19:48.916Z,21.69
2023-05-08T13:21:20.124Z,21.67
2023-05-08T13:22:51.304Z,21.62
2023-05-08T13:24:22.752Z,21.62
2023-05-08T13:54:25.633Z,22.23
2023-05-08T13:56:29.314Z,22.22
2023-05-08T13:58:00.531Z,22.15
2023-05-08T14:00:03.389Z,22.14
2023-05-08T14:01:34.550Z,22.14
2023-05-08T14:18:20.540Z,21.61
2023-05-08T14:19:52.218Z,21.58
2023-05-08T14:21:23.308Z,21.57
2023-05-08T14:22:54.468Z,21.51
2023-05-08T14:28:55.535Z,21.29
2023-05-08T14:30:26.726Z,21.21
2023-05-08T14:33:01.225Z,21.20
2023-05-08T14:53:27.330Z,20.80
2023-05-08T14:55:29.135Z,20.75
2023-05-08T14:57:00.212Z,20.77
2023-05-08T15:32:46.260Z,20.16
2023-05-08T15:58:55.569Z,20.19
2023-05-08T17:01:26.833Z,19.34
2023-05-08T17:02:59.115Z,19.33
2023-05-08T17:04:42.550Z,19.33
2023-05-08T17:06:13.711Z,19.34
2023-05-08T17:07:44.881Z,19.31
2023-05-08T17:09:17.531Z,19.29
2023-05-08T17:11:01.065Z,19.29
2023-05-08T17:12:33.518Z,19.26
2023-05-08T17:17:55.409Z,19.09
2023-05-08T17:19:26.590Z,19.07
2023-05-08T17:20:58.006Z,19.04
2023-05-08T17:22:53.556Z,18.98
2023-05-08T17:24:24.245Z,18.99
2023-05-08T17:25:55.389Z,18.96
2023-05-08T17:27:39.047Z,18.95
2023-05-08T17:29:11.205Z,18.92
2023-05-08T17:30:55.068Z,18.89
2023-05-08T17:32:26.391Z,18.88
2023-05-08T17:34:10.408Z,18.84
2023-05-08T17:35:41.493Z,18.80
2023-05-08T17:37:12.470Z,18.75
2023-05-08T17:38:56.015Z,18.73
2023-05-08T17:40:28.687Z,18.71
2023-05-08T17:42:00.851Z,18.68
2023-05-08T17:44:14.679Z,18.63
2023-05-08T17:45:46.941Z,18.62
2023-05-08T17:47:51.339Z,18.56
2023-05-08T17:50:35.851Z,18.52
2023-05-08T17:52:18.758Z,18.49
2023-05-08T19:08:58.089Z,17.57
2023-05-08T19:10:29.710Z,17.56
2023-05-08T19:12:00.847Z,17.52
2023-05-08T19:13:31.481Z,17.54
2023-05-08T19:15:03.609Z,17.54
2023-05-08T19:16:34.893Z,17.52
2023-05-08T19:18:05.998Z,17.52
2023-05-08T19:20:08.360Z,17.54
2023-05-08T19:21:40.524Z,17.52
2023-05-08T19:23:11.980Z,17.49
2023-05-08T19:24:43.174Z,17.51
2023-05-08T19:26:45.872Z,17.51
2023-05-08T19:48:45.350Z,17.33
2023-05-08T19:50:16.417Z,17.31
2023-05-08T19:52:18.236Z,17.31
2023-05-08T20:38:19.963Z,17.08
2023-05-08T20:43:40.174Z,17.05
2023-05-08T20:45:11.316Z,17.04
2023-05-08T20:47:06.954Z,17.02
2023-05-08T21:30:11.993Z,16.78
2023-05-08T21:37:15.668Z,16.79
2023-05-08T21:38:47.864Z,16.76
2023-05-08T21:40:19.289Z,16.76
2023-05-08T21:42:04.174Z,16.78
2023-05-08T22:04:53.999Z,16.74
2023-05-08T22:18:52.556Z,16.64
2023-05-08T22:20:24.719Z,16.61
2023-05-08T22:22:27.063Z,16.65
2023-05-08T22:28:22.553Z,16.56
2023-05-08T22:29:53.707Z,16.53
2023-05-08T22:31:24.439Z,16.51
2023-05-08T22:32:56.620Z,16.51
2023-05-08T23:13:32.124Z,16.46
2023-05-08T23:15:03.269Z,16.49
2023-05-08T23:16:35.539Z,16.49
2023-05-08T23:33:21.771Z,16.41
2023-05-08T23:34:52.927Z,16.38
2023-05-08T23:36:24.084Z,16.36
2023-05-08T23:37:55.279Z,16.33
2023-05-08T23:39:26.414Z,16.36
2023-05-08T23:40:57.080Z,16.36
2023-05-08T23:42:28.714Z,16.35
2023-05-08T23:43:59.880Z,16.35
2023-05-08T23:54:27.396Z,16.26
2023-05-08T23:55:58.560Z,16.26
2023-05-08T23:57:29.692Z,16.24
